Time;durP1;ratioP1;P1;durP2;ratioP2;P2;SDS_P1;SDS_P2;PMS_P1;PMS_P2;Temp;Humidity;BMP_temperature;BMP_pressure;BME280_temperature;BME280_humidity;BME280_pressure;Samples;Min_cycle;Max_cycle;Signal;HPM_P1;HPM_P2
2024/04/23 00:00:22;;;;;;;;;;;;;;;;;;1100462;26;19938;-74
2024/04/23 00:00:53;;;;;;;;;;;;;;;;;;1109609;26;19941;-73
2024/04/23 00:01:23;;;;;;;;;;;;;;;;;;1104795;26;20332;-73
2024/04/23 00:01:53;;;;;;;;;;;;;;;;;;1104921;26;20468;-73
2024/04/23 00:02:23;;;;;;;;;;;;;;;;;;1095342;26;20293;-73
2024/04/23 00:02:54;;;;;;;;;;;;;;;;;;1104861;26;19930;-73
2024/04/23 00:03:24;;;;;;;;;;;;;;;;;;1108678;26;19969;-73
2024/04/23 00:03:54;;;;;;;;;;;;;;;;;;1107960;26;19957;-73
2024/04/23 00:04:24;;;;;;;;;;;;;;;;;;1100595;26;19959;-73
2024/04/23 00:04:55;;;;;;;;;;;;;;;;;;1101738;26;19934;-73
2024/04/23 00:05:25;;;;;;;;;;;;;;;;;;1099425;26;20301;-73
2024/04/23 00:05:55;;;;;;;;;;;;;;;;;;1097804;26;20279;-73
2024/04/23 00:06:25;;;;;;;;;;;;;;;;;;1108189;26;20025;-73
2024/04/23 00:06:56;;;;;;;;;;;;;;;;;;1099651;26;20331;-73
2024/04/23 00:07:26;;;;;;;;;;;;;;;;;;1108752;26;20339;-73
2024/04/23 00:07:56;;;;;;;;;;;;;;;;;;1107137;26;19962;-73
2024/04/23 00:08:26;;;;;;;;;;;;;;;;;;1117309;26;19929;-73
2024/04/23 00:08:57;;;;;;;;;;;;;;;;;;1109271;26;19930;-73
2024/04/23 00:09:27;;;;;;;;;;;;;;;;;;1103745;26;20020;-73
2024/04/23 00:09:57;;;;;;;;;;;;;;;;;;1101487;26;19935;-73
2024/04/23 00:10:27;;;;;;;;;;;;;;;;;;1106815;26;19949;-73
2024/04/23 00:10:58;;;;;;;;;;;;;;;;;;1106878;26;19933;-73
2024/04/23 00:11:30;;;;;;;;;;;;;;;;;;1099645;26;19962;-73
2024/04/23 00:12:00;;;;;;;;;;;;;;;;;;1104626;26;19945;-73
2024/04/23 00:12:30;;;;;;;;;;;;;;;;;;1097687;27;19931;-74
2024/04/23 00:13:00;;;;;;;;;;;;;;;;;;1097638;26;19938;-74
2024/04/23 00:13:31;;;;;;;;;;;;;;;;;;1104834;26;19930;-74
2024/04/23 00:14:01;;;;;;;;;;;;;;;;;;1109867;26;19929;-74
2024/04/23 00:14:31;;;;;;;;;;;;;;;;;;1107087;26;19980;-74
2024/04/23 00:15:01;;;;;;;;;;;;;;;;;;1107496;26;20304;-74
2024/04/23 00:15:31;;;;;;;;;;;;;;;;;;1110279;26;19962;-74
2024/04/23 00:16:02;;;;;;;;;;;;;;;;;;1110463;26;19969;-74
2024/04/23 00:16:32;;;;;;;;;;;;;;;;;;1104827;26;19970;-74
2024/04/23 00:17:04;;;;;;;;;;;;;;;;;;1104963;26;19999;-74
2024/04/23 00:17:34;;;;;;;;;;;;;;;;;;1112016;26;19941;-74
2024/04/23 00:18:04;;;;;;;;;;;;;;;;;;1111806;26;19983;-74
2024/04/23 00:18:34;;;;;;;;;;;;;;;;;;1108865;26;19930;-74
2024/04/23 00:19:04;;;;;;;;;;;;;;;;;;1107438;26;20000;-74
2024/04/23 00:19:35;;;;;;;;;;;;;;;;;;1108133;26;19941;-74
2024/04/23 00:20:06;;;;;;;;;;;;;;;;;;1109625;26;19937;-74
2024/04/23 00:20:36;;;;;;;;;;;;;;;;;;1107711;26;19938;-74
2024/04/23 00:21:06;;;;;;;;;;;;;;;;;;1108428;26;19970;-74
2024/04/23 00:21:37;;;;;;;;;;;;;;;;;;1101602;26;19970;-74
2024/04/23 00:22:07;;;;;;;;;;;;;;;;;;1096505;27;19931;-74
2024/04/23 00:22:37;;;;;;;;;;;;;;;;;;1097746;27;19958;-74
2024/04/23 00:23:07;;;;;;;;;;;;;;;;;;1097470;27;19966;-74
2024/04/23 00:23:38;;;;;;;;;;;;;;;;;;1104918;26;19998;-74
2024/04/23 00:24:08;;;;;;;;;;;;;;;;;;1103031;26;19930;-74
2024/04/23 00:24:39;;;;;;;;;;;;;;;;;;1108162;26;20004;-74
2024/04/23 00:25:09;;;;;;;;;;;;;;;;;;1108594;26;20367;-74
2024/04/23 00:25:39;;;;;;;;;;;;;;;;;;1107668;26;19929;-74
2024/04/23 00:26:09;;;;;;;;;;;;;;;;;;1107993;26;19933;-74
2024/04/23 00:26:39;;;;;;;;;;;;;;;;;;1110285;26;19934;-74
2024/04/23 00:27:10;;;;;;;;;;;;;;;;;;1107685;26;19961;-74
2024/04/23 00:27:40;;;;;;;;;;;;;;;;;;1107961;26;19940;-74
2024/04/23 00:28:10;;;;;;;;;;;;;;;;;;1110430;26;19965;-74
2024/04/23 00:28:41;;;;;;;;;;;;;;;;;;1108809;26;20046;-74
2024/04/23 00:29:11;;;;;;;;;;;;;;;;;;1104691;26;19930;-74
2024/04/23 00:29:41;;;;;;;;;;;;;;;;;;1104814;26;19986;-74
2024/04/23 00:30:11;;;;;;;;;;;;;;;;;;1104414;26;20453;-74
2024/04/23 00:30:41;;;;;;;;;;;;;;;;;;1097831;27;19937;-74
2024/04/23 00:31:12;;;;;;;;;;;;;;;;;;1101511;26;19931;-74
2024/04/23 00:31:42;;;;;;;;;;;;;;;;;;1099580;26;19931;-74
2024/04/23 00:32:12;;;;;;;;;;;;;;;;;;1108031;26;19931;-74
2024/04/23 00:32:42;;;;;;;;;;;;;;;;;;1102214;26;19972;-74
2024/04/23 00:33:13;;;;;;;;;;;;;;;;;;1099556;26;19930;-74
2024/04/23 00:33:43;;;;;;;;;;;;;;;;;;1100606;26;19941;-74
2024/04/23 00:34:13;;;;;;;;;;;;;;;;;;1104552;26;19942;-74
2024/04/23 00:34:44;;;;;;;;;;;;;;;;;;1108551;26;20341;-74
2024/04/23 00:35:14;;;;;;;;;;;;;;;;;;1102303;26;20028;-74
2024/04/23 00:35:44;;;;;;;;;;;;;;;;;;1108383;26;19962;-74
2024/04/23 00:36:14;;;;;;;;;;;;;;;;;;1102484;26;19930;-74
2024/04/23 00:36:45;;;;;;;;;;;;;;;;;;1100357;26;19962;-73
2024/04/23 00:37:15;;;;;;;;;;;;;;;;;;1107973;26;20002;-73
2024/04/23 00:37:45;;;;;;;;;;;;;;;;;;1110670;26;19940;-73
2024/04/23 00:38:15;;;;;;;;;;;;;;;;;;1103818;26;19997;-73
2024/04/23 00:38:45;;;;;;;;;;;;;;;;;;1110691;26;20304;-73
2024/04/23 00:39:16;;;;;;;;;;;;;;;;;;1107261;26;20283;-73
2024/04/23 00:39:46;;;;;;;;;;;;;;;;;;1110296;26;20003;-73
2024/04/23 00:40:16;;;;;;;;;;;;;;;;;;1106916;26;19930;-73
2024/04/23 00:40:46;;;;;;;;;;;;;;;;;;1107309;26;19937;-73
2024/04/23 00:41:17;;;;;;;;;;;;;;;;;;1104478;26;20001;-73
2024/04/23 00:41:47;;;;;;;;;;;;;;;;;;1097444;27;19938;-73
2024/04/23 00:42:17;;;;;;;;;;;;;;;;;;1097327;27;19931;-73
2024/04/23 00:42:47;;;;;;;;;;;;;;;;;;1104447;26;19937;-74
2024/04/23 00:43:18;;;;;;;;;;;;;;;;;;1101619;26;19934;-74
2024/04/23 00:43:48;;;;;;;;;;;;;;;;;;1092485;27;20054;-74
2024/04/23 00:44:18;;;;;;;;;;;;;;;;;;1092468;27;19931;-74
2024/04/23 00:44:48;;;;;;;;;;;;;;;;;;1101671;26;19938;-74
2024/04/23 00:45:18;;;;;;;;;;;;;;;;;;1101200;26;19930;-74
2024/04/23 00:45:49;;;;;;;;;;;;;;;;;;1100588;26;19984;-74
2024/04/23 00:46:19;;;;;;;;;;;;;;;;;;1100010;26;20022;-74
2024/04/23 00:46:49;;;;;;;;;;;;;;;;;;1104762;26;19930;-74
2024/04/23 00:47:19;;;;;;;;;;;;;;;;;;1104491;26;20032;-74
2024/04/23 00:47:50;;;;;;;;;;;;;;;;;;1097304;27;19931;-74
2024/04/23 00:48:20;;;;;;;;;;;;;;;;;;1097433;27;19938;-74
2024/04/23 00:48:50;;;;;;;;;;;;;;;;;;1093066;27;19940;-74
2024/04/23 00:49:20;;;;;;;;;;;;;;;;;;1099556;26;20428;-74
2024/04/23 00:49:51;;;;;;;;;;;;;;;;;;1107941;26;20361;-74
2024/04/23 00:50:21;;;;;;;;;;;;;;;;;;1100797;26;20382;-74
2024/04/23 00:50:52;;;;;;;;;;;;;;;;;;1101859;26;19938;-74
2024/04/23 00:51:22;;;;;;;;;;;;;;;;;;1098867;26;19950;-74
2024/04/23 00:51:52;;;;;;;;;;;;;;;;;;1101855;26;20385;-74
2024/04/23 00:52:22;;;;;;;;;;;;;;;;;;1103388;26;20439;-74
2024/04/23 00:52:53;;;;;;;;;;;;;;;;;;1100668;26;19980;-73
2024/04/23 00:53:23;;;;;;;;;;;;;;;;;;1100718;26;20047;-73
2024/04/23 00:53:53;;;;;;;;;;;;;;;;;;1097494;27;19984;-73
2024/04/23 00:54:23;;;;;;;;;;;;;;;;;;1097421;27;20022;-73
2024/04/23 00:54:53;;;;;;;;;;;;;;;;;;1097815;27;19938;-73
2024/04/23 00:55:24;;;;;;;;;;;;;;;;;;1106591;21;20293;-73
2024/04/23 00:55:54;;;;;;;;;;;;;;;;;;1094331;27;20303;-73
2024/04/23 00:56:24;;;;;;;;;;;;;;;;;;1099231;26;20368;-73
2024/04/23 00:56:54;;;;;;;;;;;;;;;;;;1101397;26;19937;-73
2024/04/23 00:57:25;;;;;;;;;;;;;;;;;;1101632;26;19937;-73
2024/04/23 00:57:55;;;;;;;;;;;;;;;;;;1099871;26;20494;-73
2024/04/23 00:58:25;;;;;;;;;;;;;;;;;;1100171;26;19930;-73
2024/04/23 00:58:55;;;;;;;;;;;;;;;;;;1101865;26;19954;-73
2024/04/23 00:59:26;;;;;;;;;;;;;;;;;;1099930;26;20682;-73
2024/04/23 00:59:56;;;;;;;;;;;;;;;;;;1110294;21;20000;-73
2024/04/23 01:00:26;;;;;;;;;;;;;;;;;;1104358;26;19966;-73
2024/04/23 01:00:56;;;;;;;;;;;;;;;;;;1104576;26;19930;-73
2024/04/23 01:01:27;;;;;;;;;;;;;;;;;;1104715;26;20011;-73
2024/04/23 01:01:57;;;;;;;;;;;;;;;;;;1104380;26;20429;-73
2024/04/23 01:02:27;;;;;;;;;;;;;;;;;;1104923;26;19958;-73
2024/04/23 01:02:57;;;;;;;;;;;;;;;;;;1105036;26;19930;-73
2024/04/23 01:03:28;;;;;;;;;;;;;;;;;;1105184;26;19938;-73
2024/04/23 01:03:58;;;;;;;;;;;;;;;;;;1104631;26;19930;-73
2024/04/23 01:04:29;;;;;;;;;;;;;;;;;;1104071;26;19937;-73
2024/04/23 01:04:59;;;;;;;;;;;;;;;;;;1104191;26;19962;-74
2024/04/23 01:05:29;;;;;;;;;;;;;;;;;;1104386;26;19966;-74
2024/04/23 01:05:59;;;;;;;;;;;;;;;;;;1104639;26;19970;-74
2024/04/23 01:06:30;;;;;;;;;;;;;;;;;;1104566;26;19963;-74
2024/04/23 01:07:00;;;;;;;;;;;;;;;;;;1104554;26;19957;-74
2024/04/23 01:07:30;;;;;;;;;;;;;;;;;;1105189;26;19937;-74
2024/04/23 01:08:00;;;;;;;;;;;;;;;;;;1105001;26;19937;-74
2024/04/23 01:08:30;;;;;;;;;;;;;;;;;;1105229;26;19973;-74
2024/04/23 01:09:02;;;;;;;;;;;;;;;;;;1104769;26;19954;-74
2024/04/23 01:09:32;;;;;;;;;;;;;;;;;;1104739;26;19930;-74
2024/04/23 01:10:03;;;;;;;;;;;;;;;;;;1104562;26;19969;-74
2024/04/23 01:10:33;;;;;;;;;;;;;;;;;;1104850;26;20430;-74
2024/04/23 01:11:03;;;;;;;;;;;;;;;;;;1104583;26;20290;-74
2024/04/23 01:11:34;;;;;;;;;;;;;;;;;;1104679;26;20344;-74
2024/04/23 01:12:04;;;;;;;;;;;;;;;;;;1117237;21;19965;-73
2024/04/23 01:12:34;;;;;;;;;;;;;;;;;;1113643;26;19945;-74
2024/04/23 01:13:05;;;;;;;;;;;;;;;;;;1120506;26;19929;-73
2024/04/23 01:13:35;;;;;;;;;;;;;;;;;;1120734;26;19953;-74
2024/04/23 01:14:05;;;;;;;;;;;;;;;;;;1118605;26;19940;-74
2024/04/23 01:14:35;;;;;;;;;;;;;;;;;;1119422;26;19940;-74
2024/04/23 01:15:06;;;;;;;;;;;;;;;;;;1119592;26;19936;-74
2024/04/23 01:15:36;;;;;;;;;;;;;;;;;;1119301;26;19957;-74
2024/04/23 01:16:06;;;;;;;;;;;;;;;;;;1111686;26;19980;-74
2024/04/23 01:16:36;;;;;;;;;;;;;;;;;;1111788;26;20434;-74
2024/04/23 01:17:07;;;;;;;;;;;;;;;;;;1111699;26;20311;-74
2024/04/23 01:17:40;;;;;;;;;;;;;;;;;;1111724;26;19964;-74
2024/04/23 01:18:10;;;;;;;;;;;;;;;;;;1111600;26;19929;-74
2024/04/23 01:18:40;;;;;;;;;;;;;;;;;;1111347;26;19930;-74
2024/04/23 01:19:10;;;;;;;;;;;;;;;;;;1103870;26;20437;-74
2024/04/23 01:19:41;;;;;;;;;;;;;;;;;;1101499;26;20297;-74
2024/04/23 01:20:11;;;;;;;;;;;;;;;;;;1112681;26;20023;-74
2024/04/23 01:20:41;;;;;;;;;;;;;;;;;;1105759;26;19970;-74
2024/04/23 01:21:11;;;;;;;;;;;;;;;;;;1106940;26;19957;-74
2024/04/23 01:21:41;;;;;;;;;;;;;;;;;;1103435;26;20377;-75
2024/04/23 01:22:12;;;;;;;;;;;;;;;;;;1102833;26;19937;-75
2024/04/23 01:22:42;;;;;;;;;;;;;;;;;;1104057;26;20978;-75
2024/04/23 01:23:12;;;;;;;;;;;;;;;;;;1109967;26;19933;-75
2024/04/23 01:23:42;;;;;;;;;;;;;;;;;;1105606;26;20326;-75
2024/04/23 01:24:13;;;;;;;;;;;;;;;;;;1106295;26;20325;-75
2024/04/23 01:24:43;;;;;;;;;;;;;;;;;;1104750;26;20034;-75
2024/04/23 01:25:13;;;;;;;;;;;;;;;;;;1113905;26;19929;-75
2024/04/23 01:25:44;;;;;;;;;;;;;;;;;;1121187;26;19929;-74
2024/04/23 01:26:14;;;;;;;;;;;;;;;;;;1121658;26;20025;-74
2024/04/23 01:26:44;;;;;;;;;;;;;;;;;;1108706;26;19944;-74
2024/04/23 01:27:15;;;;;;;;;;;;;;;;;;1110678;26;19944;-74
2024/04/23 01:27:45;;;;;;;;;;;;;;;;;;1104586;26;19957;-74
2024/04/23 01:28:15;;;;;;;;;;;;;;;;;;1102649;26;20066;-74
2024/04/23 01:28:45;;;;;;;;;;;;;;;;;;1109267;26;20308;-74
2024/04/23 01:29:16;;;;;;;;;;;;;;;;;;1118263;26;19929;-74
2024/04/23 01:29:46;;;;;;;;;;;;;;;;;;1112654;26;20296;-74
2024/04/23 01:30:16;;;;;;;;;;;;;;;;;;1121540;26;19929;-74
2024/04/23 01:30:46;;;;;;;;;;;;;;;;;;1122591;26;20044;-74
2024/04/23 01:31:17;;;;;;;;;;;;;;;;;;1117168;26;19929;-74
2024/04/23 01:31:47;;;;;;;;;;;;;;;;;;1118025;26;19940;-74
2024/04/23 01:32:17;;;;;;;;;;;;;;;;;;1115136;26;19940;-74
2024/04/23 01:32:47;;;;;;;;;;;;;;;;;;1114236;26;20466;-74
2024/04/23 01:33:18;;;;;;;;;;;;;;;;;;1113323;26;19929;-74
2024/04/23 01:33:48;;;;;;;;;;;;;;;;;;1113009;26;19930;-75
2024/04/23 01:34:18;;;;;;;;;;;;;;;;;;1106533;26;20404;-75
2024/04/23 01:34:48;;;;;;;;;;;;;;;;;;1115138;26;20340;-75
2024/04/23 01:35:19;;;;;;;;;;;;;;;;;;1116256;26;19936;-75
2024/04/23 01:35:49;;;;;;;;;;;;;;;;;;1122444;26;19956;-75
2024/04/23 01:36:19;;;;;;;;;;;;;;;;;;1112802;26;19948;-75
2024/04/23 01:36:49;;;;;;;;;;;;;;;;;;1113071;26;19930;-75
2024/04/23 01:37:20;;;;;;;;;;;;;;;;;;1111320;26;19980;-75
2024/04/23 01:37:50;;;;;;;;;;;;;;;;;;1111108;26;20381;-75
2024/04/23 01:38:51;;;;;;;;;;;;;;;;;;1106874;21;19973;-74
2024/04/23 01:39:21;;;;;;;;;;;;;;;;;;1101683;26;20434;-74
2024/04/23 01:39:51;;;;;;;;;;;;;;;;;;1101144;26;19931;-74
2024/04/23 01:40:22;;;;;;;;;;;;;;;;;;1099754;26;20386;-74
2024/04/23 01:40:52;;;;;;;;;;;;;;;;;;1094385;27;20010;-74
2024/04/23 01:41:22;;;;;;;;;;;;;;;;;;1095687;27;19930;-74
2024/04/23 01:41:52;;;;;;;;;;;;;;;;;;1096763;27;19950;-74
2024/04/23 01:42:23;;;;;;;;;;;;;;;;;;1094841;27;19993;-74
2024/04/23 01:42:53;;;;;;;;;;;;;;;;;;1094913;27;20294;-74
2024/04/23 01:43:23;;;;;;;;;;;;;;;;;;1093942;27;19976;-74
2024/04/23 01:43:53;;;;;;;;;;;;;;;;;;1096174;27;20005;-74
2024/04/23 01:44:24;;;;;;;;;;;;;;;;;;1085396;27;19979;-74
2024/04/23 01:44:54;;;;;;;;;;;;;;;;;;1084616;27;19938;-74
2024/04/23 01:45:24;;;;;;;;;;;;;;;;;;1089072;27;20006;-74
2024/04/23 01:45:55;;;;;;;;;;;;;;;;;;1086004;27;20010;-74
2024/04/23 01:46:25;;;;;;;;;;;;;;;;;;1086856;27;20348;-74
2024/04/23 01:46:55;;;;;;;;;;;;;;;;;;1087518;27;20284;-74
2024/04/23 01:47:26;;;;;;;;;;;;;;;;;;1087047;27;19935;-74
2024/04/23 01:47:56;;;;;;;;;;;;;;;;;;1086866;27;20035;-74
2024/04/23 01:48:26;;;;;;;;;;;;;;;;;;1086701;27;19963;-75
2024/04/23 01:48:56;;;;;;;;;;;;;;;;;;1086150;27;19932;-75
2024/04/23 01:49:27;;;;;;;;;;;;;;;;;;1092018;27;20002;-75
2024/04/23 01:49:57;;;;;;;;;;;;;;;;;;1092869;27;19945;-75
2024/04/23 01:50:27;;;;;;;;;;;;;;;;;;1093208;27;19943;-75
2024/04/23 01:50:57;;;;;;;;;;;;;;;;;;1094033;27;19943;-75
2024/04/23 01:51:28;;;;;;;;;;;;;;;;;;1095100;27;19939;-74
2024/04/23 01:51:58;;;;;;;;;;;;;;;;;;1086345;27;19938;-74
2024/04/23 01:52:28;;;;;;;;;;;;;;;;;;1077853;27;20417;-74
2024/04/23 01:52:58;;;;;;;;;;;;;;;;;;1079137;27;19932;-74
2024/04/23 01:53:29;;;;;;;;;;;;;;;;;;1080157;27;19931;-74
2024/04/23 01:53:59;;;;;;;;;;;;;;;;;;1086765;27;19968;-74
2024/04/23 01:54:29;;;;;;;;;;;;;;;;;;1090080;27;19938;-74
2024/04/23 01:54:59;;;;;;;;;;;;;;;;;;1086509;27;19939;-74
2024/04/23 01:55:29;;;;;;;;;;;;;;;;;;1086939;27;19980;-74
2024/04/23 01:56:00;;;;;;;;;;;;;;;;;;1079228;27;19971;-74
2024/04/23 01:56:30;;;;;;;;;;;;;;;;;;1087170;27;19931;-74
2024/04/23 01:57:00;;;;;;;;;;;;;;;;;;1089732;27;20029;-74
2024/04/23 01:57:30;;;;;;;;;;;;;;;;;;1083334;27;20034;-74
2024/04/23 01:58:01;;;;;;;;;;;;;;;;;;1083236;27;19987;-74
2024/04/23 01:58:31;;;;;;;;;;;;;;;;;;1082951;27;19933;-74
2024/04/23 01:59:02;;;;;;;;;;;;;;;;;;1085839;27;19942;-74
2024/04/23 01:59:33;;;;;;;;;;;;;;;;;;1090694;27;19975;-74
2024/04/23 02:00:03;;;;;;;;;;;;;;;;;;1090334;27;20298;-74
2024/04/23 02:00:34;;;;;;;;;;;;;;;;;;1093716;27;20352;-74
2024/04/23 02:01:04;;;;;;;;;;;;;;;;;;1095290;27;19930;-75
2024/04/23 02:01:34;;;;;;;;;;;;;;;;;;1088793;27;19931;-74
2024/04/23 02:02:05;;;;;;;;;;;;;;;;;;1090241;27;20370;-74
2024/04/23 02:02:35;;;;;;;;;;;;;;;;;;1089706;27;19938;-74
2024/04/23 02:03:05;;;;;;;;;;;;;;;;;;1089329;27;20307;-74
2024/04/23 02:03:35;;;;;;;;;;;;;;;;;;1089239;27;19931;-74
2024/04/23 02:04:06;;;;;;;;;;;;;;;;;;1083144;27;19939;-74
2024/04/23 02:04:36;;;;;;;;;;;;;;;;;;1086343;27;19978;-74
2024/04/23 02:05:06;;;;;;;;;;;;;;;;;;1081656;27;19932;-74
2024/04/23 02:05:36;;;;;;;;;;;;;;;;;;1079682;27;20040;-74
2024/04/23 02:06:07;;;;;;;;;;;;;;;;;;1083281;27;20005;-74
2024/04/23 02:06:37;;;;;;;;;;;;;;;;;;1078156;27;19946;-74
2024/04/23 02:07:07;;;;;;;;;;;;;;;;;;1083815;27;19939;-74
2024/04/23 02:07:37;;;;;;;;;;;;;;;;;;1088761;27;20296;-75
2024/04/23 02:08:08;;;;;;;;;;;;;;;;;;1084545;27;19939;-75
2024/04/23 02:08:38;;;;;;;;;;;;;;;;;;1088989;27;19931;-75
2024/04/23 02:09:09;;;;;;;;;;;;;;;;;;1084826;27;19937;-75
2024/04/23 02:09:39;;;;;;;;;;;;;;;;;;1083386;27;19932;-75
2024/04/23 02:10:09;;;;;;;;;;;;;;;;;;1084611;27;19932;-74
2024/04/23 02:10:40;;;;;;;;;;;;;;;;;;1090851;27;19999;-74
2024/04/23 02:11:10;;;;;;;;;;;;;;;;;;1088731;27;19932;-74
2024/04/23 02:11:40;;;;;;;;;;;;;;;;;;1087881;27;20291;-74
2024/04/23 02:12:11;;;;;;;;;;;;;;;;;;1088119;27;19931;-74
2024/04/23 02:12:41;;;;;;;;;;;;;;;;;;1079955;27;20028;-75
2024/04/23 02:13:11;;;;;;;;;;;;;;;;;;1084915;27;20363;-75
2024/04/23 02:13:41;;;;;;;;;;;;;;;;;;1087676;27;19939;-74
2024/04/23 02:14:12;;;;;;;;;;;;;;;;;;1085477;27;20368;-74
2024/04/23 02:14:42;;;;;;;;;;;;;;;;;;1094983;27;19931;-74
2024/04/23 02:15:12;;;;;;;;;;;;;;;;;;1093105;27;19977;-75
2024/04/23 02:15:42;;;;;;;;;;;;;;;;;;1086680;27;19939;-75
2024/04/23 02:16:13;;;;;;;;;;;;;;;;;;1084055;27;20387;-74
2024/04/23 02:16:43;;;;;;;;;;;;;;;;;;1085722;27;20303;-74
2024/04/23 02:17:14;;;;;;;;;;;;;;;;;;1088433;27;20002;-75
2024/04/23 02:17:44;;;;;;;;;;;;;;;;;;1083916;27;20030;-75
2024/04/23 02:18:14;;;;;;;;;;;;;;;;;;1083203;27;19935;-75
2024/04/23 02:18:45;;;;;;;;;;;;;;;;;;1086458;27;20445;-75
2024/04/23 02:19:15;;;;;;;;;;;;;;;;;;1084398;27;20315;-75
2024/04/23 02:19:45;;;;;;;;;;;;;;;;;;1082277;27;19932;-75
2024/04/23 02:20:15;;;;;;;;;;;;;;;;;;1089233;27;19931;-75
2024/04/23 02:20:47;;;;;;;;;;;;;;;;;;1086957;27;19939;-75
2024/04/23 02:21:17;;;;;;;;;;;;;;;;;;1096305;27;19941;-75
2024/04/23 02:21:48;;;;;;;;;;;;;;;;;;1096401;27;20326;-75
2024/04/23 02:22:19;;;;;;;;;;;;;;;;;;1094558;27;19950;-75
2024/04/23 02:22:49;;;;;;;;;;;;;;;;;;1106927;21;19962;-74
2024/04/23 02:23:19;;;;;;;;;;;;;;;;;;1109300;26;19934;-74
2024/04/23 02:23:50;;;;;;;;;;;;;;;;;;1108039;26;19945;-74
2024/04/23 02:24:20;;;;;;;;;;;;;;;;;;1109607;26;19969;-74
2024/04/23 02:24:50;;;;;;;;;;;;;;;;;;1104462;26;19942;-74
2024/04/23 02:25:21;;;;;;;;;;;;;;;;;;1104571;26;20441;-74
2024/04/23 02:25:51;;;;;;;;;;;;;;;;;;1104246;26;19931;-75
2024/04/23 02:26:21;;;;;;;;;;;;;;;;;;1103736;26;19940;-75
2024/04/23 02:26:51;;;;;;;;;;;;;;;;;;1103475;26;19930;-75
2024/04/23 02:27:21;;;;;;;;;;;;;;;;;;1103766;26;19940;-75
2024/04/23 02:27:52;;;;;;;;;;;;;;;;;;1103837;26;19945;-75
2024/04/23 02:28:22;;;;;;;;;;;;;;;;;;1096580;27;19930;-75
2024/04/23 02:28:52;;;;;;;;;;;;;;;;;;1096055;26;19990;-75
2024/04/23 02:29:22;;;;;;;;;;;;;;;;;;1104154;26;19961;-75
2024/04/23 02:29:53;;;;;;;;;;;;;;;;;;1103231;26;19938;-75
2024/04/23 02:30:23;;;;;;;;;;;;;;;;;;1095829;27;19931;-75
2024/04/23 02:30:53;;;;;;;;;;;;;;;;;;1096623;27;19931;-75
2024/04/23 02:31:23;;;;;;;;;;;;;;;;;;1096638;27;20373;-74
2024/04/23 02:31:54;;;;;;;;;;;;;;;;;;1099769;26;19938;-76
2024/04/23 02:32:24;;;;;;;;;;;;;;;;;;1099345;26;19930;-75
2024/04/23 02:32:54;;;;;;;;;;;;;;;;;;1096513;26;19976;-75
2024/04/23 02:33:24;;;;;;;;;;;;;;;;;;1091148;27;20351;-75
2024/04/23 02:33:55;;;;;;;;;;;;;;;;;;1098473;26;20422;-75
2024/04/23 02:34:25;;;;;;;;;;;;;;;;;;1100132;26;19937;-75
2024/04/23 02:34:55;;;;;;;;;;;;;;;;;;1090556;27;19931;-76
2024/04/23 02:35:26;;;;;;;;;;;;;;;;;;1092374;27;20476;-75
2024/04/23 02:35:56;;;;;;;;;;;;;;;;;;1096541;26;19931;-75
2024/04/23 02:36:26;;;;;;;;;;;;;;;;;;1097751;26;19946;-75
2024/04/23 02:36:57;;;;;;;;;;;;;;;;;;1097987;26;20267;-75
2024/04/23 02:37:27;;;;;;;;;;;;;;;;;;1098399;26;19975;-75
2024/04/23 02:37:57;;;;;;;;;;;;;;;;;;1103949;26;19959;-75
2024/04/23 02:38:28;;;;;;;;;;;;;;;;;;1108453;26;20025;-75
2024/04/23 02:38:58;;;;;;;;;;;;;;;;;;1108467;26;20318;-74
2024/04/23 02:39:28;;;;;;;;;;;;;;;;;;1105542;26;20760;-74
2024/04/23 02:39:58;;;;;;;;;;;;;;;;;;1102964;26;20262;-74
2024/04/23 02:40:28;;;;;;;;;;;;;;;;;;1102920;26;19938;-75
2024/04/23 02:40:59;;;;;;;;;;;;;;;;;;1094627;26;19931;-75
2024/04/23 02:41:29;;;;;;;;;;;;;;;;;;1104343;26;19950;-75
2024/04/23 02:41:59;;;;;;;;;;;;;;;;;;1105389;26;19934;-75
2024/04/23 02:42:32;;;;;;;;;;;;;;;;;;1103769;26;20025;-75
2024/04/23 02:43:03;;;;;;;;;;;;;;;;;;1102266;26;19930;-76
2024/04/23 02:43:34;;;;;;;;;;;;;;;;;;1102157;26;19938;-76
2024/04/23 02:44:06;;;;;;;;;;;;;;;;;;1097670;26;19945;-76
2024/04/23 02:44:37;;;;;;;;;;;;;;;;;;1096742;26;19938;-76
2024/04/23 02:45:07;;;;;;;;;;;;;;;;;;1102525;26;19930;-76
2024/04/23 02:45:37;;;;;;;;;;;;;;;;;;1105163;26;20274;-76
2024/04/23 02:46:08;;;;;;;;;;;;;;;;;;1102631;26;19930;-76
2024/04/23 02:46:38;;;;;;;;;;;;;;;;;;1104523;26;19945;-76
2024/04/23 02:47:08;;;;;;;;;;;;;;;;;;1104316;26;20405;-76
2024/04/23 02:47:38;;;;;;;;;;;;;;;;;;1104784;26;19930;-76
2024/04/23 02:48:10;;;;;;;;;;;;;;;;;;1101708;26;19931;-76
2024/04/23 02:48:40;;;;;;;;;;;;;;;;;;1099331;26;20041;-76
2024/04/23 02:49:11;;;;;;;;;;;;;;;;;;1095805;26;19934;-75
2024/04/23 02:49:41;;;;;;;;;;;;;;;;;;1105122;26;19970;-75
2024/04/23 02:50:11;;;;;;;;;;;;;;;;;;1096921;26;20017;-76
2024/04/23 02:50:42;;;;;;;;;;;;;;;;;;1097833;26;19930;-75
2024/04/23 02:51:12;;;;;;;;;;;;;;;;;;1096257;26;20070;-74
2024/04/23 02:51:42;;;;;;;;;;;;;;;;;;1088970;27;20936;-74
2024/04/23 02:52:13;;;;;;;;;;;;;;;;;;1087989;27;19946;-75
2024/04/23 02:52:43;;;;;;;;;;;;;;;;;;1092671;22;19957;-75
2024/04/23 02:53:14;;;;;;;;;;;;;;;;;;1081555;27;19939;-75
2024/04/23 02:53:44;;;;;;;;;;;;;;;;;;1085400;27;19971;-75
2024/04/23 02:54:14;;;;;;;;;;;;;;;;;;1091640;26;19931;-75
2024/04/23 02:54:45;;;;;;;;;;;;;;;;;;1096232;27;19981;-76
2024/04/23 02:55:15;;;;;;;;;;;;;;;;;;1095584;26;19998;-77
2024/04/23 02:55:45;;;;;;;;;;;;;;;;;;1098239;27;20301;-76
2024/04/23 02:56:15;;;;;;;;;;;;;;;;;;1097268;27;19935;-75
2024/04/23 02:56:48;;;;;;;;;;;;;;;;;;1097697;26;19994;-75
2024/04/23 02:57:18;;;;;;;;;;;;;;;;;;1095342;26;20379;-75
2024/04/23 02:57:48;;;;;;;;;;;;;;;;;;1095992;26;19942;-76
2024/04/23 02:58:18;;;;;;;;;;;;;;;;;;1094255;26;19931;-76
2024/04/23 02:58:49;;;;;;;;;;;;;;;;;;1095796;26;20282;-76
2024/04/23 02:59:19;;;;;;;;;;;;;;;;;;1091827;26;20402;-76
2024/04/23 02:59:49;;;;;;;;;;;;;;;;;;1090255;27;20382;-76
2024/04/23 03:00:20;;;;;;;;;;;;;;;;;;1090754;27;19966;-75
2024/04/23 03:00:50;;;;;;;;;;;;;;;;;;1090956;27;19938;-75
2024/04/23 03:01:20;;;;;;;;;;;;;;;;;;1091847;27;19964;-75
2024/04/23 03:01:51;;;;;;;;;;;;;;;;;;1097555;26;19963;-75
2024/04/23 03:02:22;;;;;;;;;;;;;;;;;;1095283;26;20379;-76
2024/04/23 03:02:52;;;;;;;;;;;;;;;;;;1094631;27;19963;-76
2024/04/23 03:03:22;;;;;;;;;;;;;;;;;;1095495;26;19938;-75
2024/04/23 03:03:53;;;;;;;;;;;;;;;;;;1091206;27;19938;-76
2024/04/23 03:04:23;;;;;;;;;;;;;;;;;;1091885;27;19963;-76
2024/04/23 03:04:53;;;;;;;;;;;;;;;;;;1094664;27;19930;-76
2024/04/23 03:05:24;;;;;;;;;;;;;;;;;;1094860;27;19942;-75
2024/04/23 03:05:54;;;;;;;;;;;;;;;;;;1096891;27;19930;-76
2024/04/23 03:06:24;;;;;;;;;;;;;;;;;;1091507;27;19935;-76
2024/04/23 03:06:54;;;;;;;;;;;;;;;;;;1090181;27;19931;-76
2024/04/23 03:07:25;;;;;;;;;;;;;;;;;;1092696;27;19959;-76
2024/04/23 03:07:55;;;;;;;;;;;;;;;;;;1093549;27;19942;-76
2024/04/23 03:08:25;;;;;;;;;;;;;;;;;;1090231;27;19979;-76
2024/04/23 03:08:55;;;;;;;;;;;;;;;;;;1095752;26;19938;-76
2024/04/23 03:09:27;;;;;;;;;;;;;;;;;;1093359;26;20352;-77
2024/04/23 03:09:57;;;;;;;;;;;;;;;;;;1094265;26;19938;-77
2024/04/23 03:10:28;;;;;;;;;;;;;;;;;;1096041;27;20005;-76
2024/04/23 03:10:58;;;;;;;;;;;;;;;;;;1095565;27;20344;-76
2024/04/23 03:11:29;;;;;;;;;;;;;;;;;;1095486;26;20346;-76
2024/04/23 03:11:59;;;;;;;;;;;;;;;;;;1096032;26;20423;-76
2024/04/23 03:12:29;;;;;;;;;;;;;;;;;;1094300;26;19949;-76
2024/04/23 03:12:59;;;;;;;;;;;;;;;;;;1092876;26;19959;-76
2024/04/23 03:13:30;;;;;;;;;;;;;;;;;;1092946;26;19961;-77
2024/04/23 03:14:00;;;;;;;;;;;;;;;;;;1087302;27;19938;-77
2024/04/23 03:14:30;;;;;;;;;;;;;;;;;;1084449;27;21379;-76
2024/04/23 03:15:00;;;;;;;;;;;;;;;;;;1087417;27;19956;-76
2024/04/23 03:15:32;;;;;;;;;;;;;;;;;;1088250;27;20025;-76
2024/04/23 03:16:02;;;;;;;;;;;;;;;;;;1092709;26;20588;-76
2024/04/23 03:16:32;;;;;;;;;;;;;;;;;;1060714;26;20379;-76
2024/04/23 03:17:03;;;;;;;;;;;;;;;;;;1078437;27;20416;-76
2024/04/23 03:17:33;;;;;;;;;;;;;;;;;;1082121;27;20407;-76
2024/04/23 03:18:05;;;;;;;;;;;;;;;;;;1083673;27;19975;-75
2024/04/23 03:18:35;;;;;;;;;;;;;;;;;;1090020;27;20432;-76
2024/04/23 03:19:06;;;;;;;;;;;;;;;;;;1091645;27;19938;-76
2024/04/23 03:19:36;;;;;;;;;;;;;;;;;;1088322;27;19983;-76
2024/04/23 03:20:07;;;;;;;;;;;;;;;;;;1090623;27;19943;-76
2024/04/23 03:20:37;;;;;;;;;;;;;;;;;;1093473;27;19950;-76
2024/04/23 03:21:07;;;;;;;;;;;;;;;;;;1100036;26;21525;-75
2024/04/23 03:21:37;;;;;;;;;;;;;;;;;;1099559;26;19938;-75
2024/04/23 03:22:08;;;;;;;;;;;;;;;;;;1098097;26;19999;-75
2024/04/23 03:22:39;;;;;;;;;;;;;;;;;;1098782;27;19938;-75
2024/04/23 03:23:09;;;;;;;;;;;;;;;;;;1091875;27;19931;-75
2024/04/23 03:23:40;;;;;;;;;;;;;;;;;;1092841;26;19934;-76
2024/04/23 03:24:10;;;;;;;;;;;;;;;;;;1093003;27;19935;-75
2024/04/23 03:24:42;;;;;;;;;;;;;;;;;;1096459;27;19949;-75
2024/04/23 03:25:12;;;;;;;;;;;;;;;;;;1100589;26;19931;-75
2024/04/23 03:25:42;;;;;;;;;;;;;;;;;;1092900;27;19986;-75
2024/04/23 03:26:12;;;;;;;;;;;;;;;;;;1090638;27;19939;-75
2024/04/23 03:26:43;;;;;;;;;;;;;;;;;;1092425;27;20493;-76
2024/04/23 03:27:13;;;;;;;;;;;;;;;;;;1092032;27;19931;-75
2024/04/23 03:27:43;;;;;;;;;;;;;;;;;;1096942;27;19937;-76